Time;durP1;ratioP1;P1;durP2;ratioP2;P2;SDS_P1;SDS_P2;PMS_P1;PMS_P2;Temp;Humidity;BMP_temperature;BMP_pressure;BME280_temperature;BME280_humidity;BME280_pressure;Samples;Min_cycle;Max_cycle;Signal;HPM_P1;HPM_P2
2022/06/22 00:01:24;;;;;;;10.95;4.82;;;;;;;;;;4974220;28;20106;-68
2022/06/22 00:03:52;;;;;;;10.90;5.50;;;;;;;;;;4974178;28;20105;-67
2022/06/22 00:06:29;;;;;;;14.98;5.55;;;;;;;;;;4973857;28;20027;-68
2022/06/22 00:08:55;;;;;;;12.85;5.72;;;;;;;;;;4974160;28;20019;-67
2022/06/22 00:11:21;;;;;;;13.68;5.45;;;;;;;;;;4974077;28;20169;-68
2022/06/22 00:13:50;;;;;;;9.02;5.45;;;;;;;;;;4974148;28;20038;-67
2022/06/22 00:16:19;;;;;;;15.85;5.88;;;;;;;;;;4973737;28;20101;-66
2022/06/22 00:18:47;;;;;;;11.23;5.72;;;;;;;;;;4991449;28;20446;-68
2022/06/22 00:21:24;;;;;;;10.77;5.38;;;;;;;;;;4993097;28;20105;-68
2022/06/22 00:23:56;;;;;;;13.85;5.50;;;;;;;;;;4971284;28;20453;-68
2022/06/22 00:26:25;;;;;;;10.10;5.72;;;;;;;;;;4954577;28;20031;-67
2022/06/22 00:28:59;;;;;;;10.15;6.15;;;;;;;;;;4954544;28;20035;-68
2022/06/22 00:31:42;;;;;;;10.70;5.30;;;;;;;;;;4954470;28;20094;-68
2022/06/22 00:34:11;;;;;;;10.30;5.10;;;;;;;;;;4954500;28;20027;-68
2022/06/22 00:36:56;;;;;;;15.30;5.32;;;;;;;;;;4954060;28;20072;-67
2022/06/22 00:39:26;;;;;;;12.95;5.22;;;;;;;;;;4965511;28;20086;-68
2022/06/22 00:42:14;;;;;;;14.00;5.75;;;;;;;;;;4973449;28;20022;-68
2022/06/22 00:44:59;;;;;;;11.32;4.90;;;;;;;;;;4973042;28;20023;-67
2022/06/22 00:47:28;;;;;;;9.63;5.28;;;;;;;;;;4973661;28;20026;-67
2022/06/22 00:50:01;;;;;;;11.07;4.90;;;;;;;;;;4973382;28;20026;-68
2022/06/22 00:53:05;;;;;;;12.90;5.43;;;;;;;;;;4973779;28;20030;-68
2022/06/22 00:55:36;;;;;;;11.48;5.50;;;;;;;;;;4973648;28;20074;-68
2022/06/22 00:58:11;;;;;;;10.32;5.10;;;;;;;;;;4973626;28;20476;-68
2022/06/22 01:00:40;;;;;;;10.32;5.20;;;;;;;;;;4973620;28;20113;-68
2022/06/22 01:03:22;;;;;;;13.75;5.13;;;;;;;;;;4973523;28;20173;-68
2022/06/22 01:05:59;;;;;;;9.55;5.50;;;;;;;;;;4973310;28;20026;-68
2022/06/22 01:08:29;;;;;;;13.55;5.53;;;;;;;;;;4973500;28;20031;-68
2022/06/22 01:11:00;;;;;;;;;;;;;;;;;;4973712;28;20038;-68
2022/06/22 01:13:46;;;;;;;9.70;5.13;;;;;;;;;;4973574;28;19914;-68
2022/06/22 01:16:28;;;;;;;7.65;4.82;;;;;;;;;;4972914;28;20043;-68
2022/06/22 01:19:04;;;;;;;11.75;5.07;;;;;;;;;;4990598;28;20049;-68
2022/06/22 01:21:44;;;;;;;10.40;4.90;;;;;;;;;;4991519;28;20030;-68
2022/06/22 01:24:42;;;;;;;12.55;5.13;;;;;;;;;;4992804;28;20030;-68
2022/06/22 01:27:36;;;;;;;9.80;4.82;;;;;;;;;;4970913;28;20111;-68
2022/06/22 01:30:20;;;;;;;11.07;5.43;;;;;;;;;;4971234;28;20035;-68
2022/06/22 01:32:47;;;;;;;12.15;5.32;;;;;;;;;;4954694;28;20443;-68
2022/06/22 01:35:31;;;;;;;11.50;4.65;;;;;;;;;;4971055;28;20023;-68
2022/06/22 01:37:58;;;;;;;10.80;4.97;;;;;;;;;;4962409;28;20150;-67
2022/06/22 01:40:45;;;;;;;10.48;5.50;;;;;;;;;;4951750;29;20167;-68
2022/06/22 01:43:42;;;;;;;13.02;5.55;;;;;;;;;;4951730;29;20035;-68
2022/06/22 01:46:19;;;;;;;11.35;4.63;;;;;;;;;;4940693;29;20047;-67
2022/06/22 01:49:03;;;;;;;11.48;5.30;;;;;;;;;;4951511;29;20032;-68
2022/06/22 01:51:33;;;;;;;10.98;5.63;;;;;;;;;;4951754;29;20043;-68
2022/06/22 01:54:15;;;;;;;11.10;5.53;;;;;;;;;;4951837;29;20039;-68
2022/06/22 01:57:10;;;;;;;11.15;5.03;;;;;;;;;;4952582;28;20046;-68
2022/06/22 02:00:04;;;;;;;12.77;5.55;;;;;;;;;;4952414;29;20082;-67
2022/06/22 02:02:56;;;;;;;12.65;5.15;;;;;;;;;;4954980;29;20078;-68
2022/06/22 02:05:39;;;;;;;10.90;5.57;;;;;;;;;;4916930;29;20044;-68
2022/06/22 02:08:28;;;;;;;12.43;5.00;;;;;;;;;;4916894;29;20044;-68
2022/06/22 02:11:04;;;;;;;14.13;5.32;;;;;;;;;;4916675;29;20501;-68
2022/06/22 02:14:08;;;;;;;11.10;5.68;;;;;;;;;;4916894;29;20519;-67
2022/06/22 02:16:43;;;;;;;10.27;4.97;;;;;;;;;;4916181;29;20052;-69
2022/06/22 02:19:15;;;;;;;8.98;4.88;;;;;;;;;;4916804;29;20040;-68
2022/06/22 02:21:46;;;;;;;8.25;5.60;;;;;;;;;;4903685;29;20209;-68
2022/06/22 02:24:35;;;;;;;8.43;4.72;;;;;;;;;;4897684;29;20045;-68
2022/06/22 02:27:10;;;;;;;12.38;5.00;;;;;;;;;;4897687;29;20033;-68
2022/06/22 02:29:38;;;;;;;11.55;5.03;;;;;;;;;;4897675;29;20055;-67
2022/06/22 02:32:11;;;;;;;10.05;5.78;;;;;;;;;;4899143;29;20052;-68
2022/06/22 02:34:39;;;;;;;8.75;5.30;;;;;;;;;;4916460;29;20036;-68
2022/06/22 02:37:08;;;;;;;9.55;5.53;;;;;;;;;;4916240;29;20124;-67
2022/06/22 02:39:40;;;;;;;12.23;5.53;;;;;;;;;;4916368;29;20068;-67
2022/06/22 02:44:50;;;;;;;13.25;5.93;;;;;;;;;;4976163;28;20042;-68
2022/06/22 02:47:22;;;;;;;11.07;4.80;;;;;;;;;;4975603;28;20027;-68
2022/06/22 02:49:54;;;;;;;14.80;5.43;;;;;;;;;;4975688;28;20027;-68
2022/06/22 02:52:22;;;;;;;8.15;5.10;;;;;;;;;;4975677;28;20072;-68
2022/06/22 02:54:59;;;;;;;9.73;5.03;;;;;;;;;;4975621;28;20027;-68
2022/06/22 02:57:43;;;;;;;11.20;5.28;;;;;;;;;;4975573;28;20030;-67
2022/06/22 03:00:09;;;;;;;17.33;5.85;;;;;;;;;;4975417;28;20056;-68
2022/06/22 03:02:36;;;;;;;11.48;5.50;;;;;;;;;;4975529;28;20535;-67
2022/06/22 03:05:05;;;;;;;10.63;5.10;;;;;;;;;;4974190;28;20042;-68
2022/06/22 03:07:34;;;;;;;13.32;5.78;;;;;;;;;;4975238;28;20031;-68
2022/06/22 03:10:02;;;;;;;11.55;5.80;;;;;;;;;;4974798;28;20031;-67
2022/06/22 03:12:29;;;;;;;10.27;5.55;;;;;;;;;;4975390;28;20030;-67
2022/06/22 03:15:03;;;;;;;11.10;5.85;;;;;;;;;;4974856;28;20122;-68
2022/06/22 03:17:38;;;;;;;11.65;5.75;;;;;;;;;;4974939;28;20096;-68
2022/06/22 03:20:03;;;;;;;11.57;5.68;;;;;;;;;;4975200;28;20388;-67
2022/06/22 03:22:32;;;;;;;11.00;5.55;;;;;;;;;;4975171;28;20031;-67
2022/06/22 03:25:19;;;;;;;10.48;5.15;;;;;;;;;;4974884;28;20031;-68
2022/06/22 03:27:49;;;;;;;7.72;4.70;;;;;;;;;;4975169;28;20042;-67
2022/06/22 03:30:22;;;;;;;14.48;5.70;;;;;;;;;;4974834;28;20070;-68
2022/06/22 03:33:01;;;;;;;12.48;5.68;;;;;;;;;;4974960;28;20031;-68
2022/06/22 03:35:50;;;;;;;10.30;5.18;;;;;;;;;;4974915;28;20030;-67
2022/06/22 03:38:20;;;;;;;11.43;5.40;;;;;;;;;;4974829;28;20114;-67
2022/06/22 03:41:04;;;;;;;10.43;5.78;;;;;;;;;;4974615;28;20373;-67
2022/06/22 03:43:42;;;;;;;11.90;5.15;;;;;;;;;;4974551;28;20403;-68
2022/06/22 03:46:29;;;;;;;10.27;5.50;;;;;;;;;;4974377;28;20038;-68
2022/06/22 03:49:05;;;;;;;13.57;5.20;;;;;;;;;;4974488;28;20031;-68
2022/06/22 03:51:49;;;;;;;12.30;6.00;;;;;;;;;;4974642;28;20387;-67
2022/06/22 03:54:23;;;;;;;13.70;5.30;;;;;;;;;;4974649;28;20038;-67
2022/06/22 03:56:53;;;;;;;13.35;5.50;;;;;;;;;;4974409;28;20034;-68
2022/06/22 03:59:19;;;;;;;10.75;5.90;;;;;;;;;;4974225;28;20038;-68
2022/06/22 04:01:44;;;;;;;16.27;5.97;;;;;;;;;;4974518;28;20035;-67
2022/06/22 04:04:11;;;;;;;14.85;6.65;;;;;;;;;;4974426;28;20031;-68
2022/06/22 04:06:49;;;;;;;17.65;7.72;;;;;;;;;;4974348;28;20026;-68
2022/06/22 04:09:21;;;;;;;11.57;5.57;;;;;;;;;;4973648;28;20031;-68
2022/06/22 04:12:06;;;;;;;11.70;5.82;;;;;;;;;;4974276;28;20578;-67
2022/06/22 04:14:36;;;;;;;16.20;7.57;;;;;;;;;;4974018;28;20477;-68
2022/06/22 04:17:21;;;;;;;14.33;8.33;;;;;;;;;;4977371;28;20522;-68
2022/06/22 04:20:00;;;;;;;17.33;7.25;;;;;;;;;;4993480;28;20379;-67
2022/06/22 04:22:28;;;;;;;12.77;6.32;;;;;;;;;;4993519;28;20031;-67
2022/06/22 04:25:00;;;;;;;14.35;5.70;;;;;;;;;;4993315;28;20103;-67
2022/06/22 04:27:30;;;;;;;12.45;6.00;;;;;;;;;;4993272;28;20108;-67
2022/06/22 04:30:26;;;;;;;;;;;;;;;;;;4979974;28;20034;-68
2022/06/22 04:33:06;;;;;;;13.82;5.40;;;;;;;;;;4965178;28;19925;-67
2022/06/22 04:35:56;;;;;;;10.50;4.65;;;;;;;;;;4973969;28;20507;-68
2022/06/22 04:38:36;;;;;;;13.52;5.07;;;;;;;;;;4961934;28;20071;-67
2022/06/22 04:41:04;;;;;;;9.70;4.60;;;;;;;;;;4962494;28;20084;-68
2022/06/22 04:43:31;;;;;;;7.30;3.85;;;;;;;;;;4973259;28;20053;-68
2022/06/22 04:45:57;;;;;;;11.77;3.90;;;;;;;;;;4972413;28;20480;-67
2022/06/22 04:48:30;;;;;;;7.95;4.03;;;;;;;;;;4973675;28;20027;-68
2022/06/22 04:51:02;;;;;;;9.43;4.28;;;;;;;;;;4973486;28;20124;-67
2022/06/22 04:53:34;;;;;;;10.73;4.13;;;;;;;;;;4973488;28;20031;-68
2022/06/22 04:56:05;;;;;;;5.97;3.20;;;;;;;;;;4973345;28;20074;-68
2022/06/22 04:58:36;;;;;;;10.23;3.88;;;;;;;;;;4973643;28;20026;-67
2022/06/22 05:01:04;;;;;;;13.77;3.60;;;;;;;;;;4973412;28;20027;-68
2022/06/22 05:03:30;;;;;;;8.45;3.60;;;;;;;;;;4973626;28;20134;-68
2022/06/22 05:05:59;;;;;;;11.43;3.30;;;;;;;;;;4973511;28;20023;-68
2022/06/22 05:08:31;;;;;;;9.70;3.40;;;;;;;;;;4973508;28;20023;-68
2022/06/22 05:11:02;;;;;;;12.23;3.55;;;;;;;;;;4973133;28;20074;-68
2022/06/22 05:13:38;;;;;;;8.95;4.03;;;;;;;;;;4973474;28;20094;-67
2022/06/22 05:16:09;;;;;;;11.82;3.80;;;;;;;;;;4973056;28;20039;-68
2022/06/22 05:18:37;;;;;;;6.38;3.20;;;;;;;;;;4973432;28;20038;-68
2022/06/22 05:21:11;;;;;;;9.05;3.63;;;;;;;;;;4973246;28;20035;-68
2022/06/22 05:23:40;;;;;;;5.75;3.00;;;;;;;;;;4973616;28;20027;-68
2022/06/22 05:26:08;;;;;;;5.47;2.40;;;;;;;;;;4971628;28;20031;-67
2022/06/22 05:28:45;;;;;;;7.93;3.08;;;;;;;;;;4973218;28;20034;-68
2022/06/22 05:31:21;;;;;;;9.88;2.83;;;;;;;;;;4973489;28;20477;-68
2022/06/22 05:33:50;;;;;;;11.45;3.08;;;;;;;;;;4977085;28;20074;-68
2022/06/22 05:36:21;;;;;;;5.22;3.00;;;;;;;;;;4976984;28;20026;-68
2022/06/22 05:38:50;;;;;;;5.75;2.72;;;;;;;;;;4976891;28;20392;-68
2022/06/22 05:41:20;;;;;;;7.68;2.95;;;;;;;;;;4976312;28;20396;-68
2022/06/22 05:43:45;;;;;;;;;;;;;;;;;;4977565;28;20365;-67
2022/06/22 05:46:12;;;;;;;12.40;3.60;;;;;;;;;;4976864;28;19966;-68
2022/06/22 05:48:48;;;;;;;7.97;2.97;;;;;;;;;;4976441;28;20031;-68
2022/06/22 05:51:25;;;;;;;9.23;3.22;;;;;;;;;;4976703;28;20045;-68
2022/06/22 05:53:53;;;;;;;7.90;2.70;;;;;;;;;;4976573;28;20058;-68
2022/06/22 05:56:22;;;;;;;7.20;3.17;;;;;;;;;;4976795;28;20055;-68
2022/06/22 05:59:03;;;;;;;6.75;2.25;;;;;;;;;;4976640;28;20027;-68
2022/06/22 06:01:41;;;;;;;4.43;2.30;;;;;;;;;;4976682;28;20097;-68
2022/06/22 06:04:25;;;;;;;7.47;2.38;;;;;;;;;;4976624;28;20023;-68
2022/06/22 06:06:54;;;;;;;8.95;2.60;;;;;;;;;;4976385;28;20066;-68
2022/06/22 06:09:23;;;;;;;4.60;2.20;;;;;;;;;;4976257;28;20503;-68
2022/06/22 06:11:55;;;;;;;3.65;2.10;;;;;;;;;;4976553;28;20389;-68
2022/06/22 06:14:26;;;;;;;4.55;2.20;;;;;;;;;;4976530;28;20023;-68
2022/06/22 06:16:54;;;;;;;11.00;2.55;;;;;;;;;;4975909;28;20050;-68
2022/06/22 06:19:28;;;;;;;10.10;2.13;;;;;;;;;;4976156;28;20035;-67
2022/06/22 06:21:59;;;;;;;5.78;2.08;;;;;;;;;;4976306;28;20038;-68
2022/06/22 06:24:37;;;;;;;5.72;1.98;;;;;;;;;;4976130;28;20026;-68
2022/06/22 06:30:01;;;;;;;5.70;1.90;;;;;;;;;;4976202;28;20499;-68
2022/06/22 06:32:39;;;;;;;4.55;1.80;;;;;;;;;;4976284;28;20027;-68
2022/06/22 06:35:25;;;;;;;7.60;1.98;;;;;;;;;;4976173;28;20443;-68
2022/06/22 06:38:08;;;;;;;5.10;1.83;;;;;;;;;;4975716;28;20030;-68
2022/06/22 06:40:53;;;;;;;6.20;1.98;;;;;;;;;;4975883;28;20102;-68
2022/06/22 06:43:55;;;;;;;8.73;1.83;;;;;;;;;;4975855;28;20070;-68
2022/06/22 06:46:36;;;;;;;5.68;1.50;;;;;;;;;;4975933;28;20034;-68
2022/06/22 06:49:17;;;;;;;5.82;1.70;;;;;;;;;;4975789;28;20023;-68
2022/06/22 06:51:51;;;;;;;2.92;1.70;;;;;;;;;;4975580;28;20117;-68
2022/06/22 06:54:29;;;;;;;5.28;1.85;;;;;;;;;;4975608;28;20023;-68
2022/06/22 06:57:28;;;;;;;5.78;1.60;;;;;;;;;;4975548;28;20038;-69
2022/06/22 06:59:56;;;;;;;5.85;1.63;;;;;;;;;;4934665;29;20107;-68
2022/06/22 07:02:32;;;;;;;7.03;1.63;;;;;;;;;;4935033;29;20040;-67
2022/06/22 07:05:00;;;;;;;4.70;1.80;;;;;;;;;;4934796;29;20063;-67
2022/06/22 07:07:50;;;;;;;3.85;1.70;;;;;;;;;;4934672;29;20035;-68
2022/06/22 07:10:25;;;;;;;3.10;1.70;;;;;;;;;;4934815;29;20516;-68
2022/06/22 07:12:59;;;;;;;6.80;2.00;;;;;;;;;;4934712;29;20044;-68
2022/06/22 07:15:33;;;;;;;3.85;1.70;;;;;;;;;;4934544;29;20047;-68
2022/06/22 07:18:09;;;;;;;3.75;1.52;;;;;;;;;;4934470;29;20118;-68
2022/06/22 07:20:39;;;;;;;7.00;1.83;;;;;;;;;;4934723;29;20576;-68
2022/06/22 07:23:20;;;;;;;;;;;;;;;;;;4934907;29;20568;-68
2022/06/22 07:25:54;;;;;;;3.75;1.40;;;;;;;;;;4934327;29;19915;-68
2022/06/22 07:28:36;;;;;;;3.03;1.35;;;;;;;;;;4915421;29;20040;-68
2022/06/22 07:31:25;;;;;;;5.43;1.60;;;;;;;;;;4915302;29;20024;-68
2022/06/22 07:34:00;;;;;;;3.58;1.40;;;;;;;;;;4915407;29;20107;-67
2022/06/22 07:36:41;;;;;;;6.93;1.55;;;;;;;;;;4951456;29;20035;-68
2022/06/22 07:39:10;;;;;;;3.53;1.50;;;;;;;;;;4973081;28;20365;-68
2022/06/22 07:41:36;;;;;;;4.82;2.05;;;;;;;;;;4974805;28;20094;-68
2022/06/22 07:44:06;;;;;;;3.20;1.65;;;;;;;;;;4974877;28;20027;-68
2022/06/22 07:46:58;;;;;;;5.03;1.50;;;;;;;;;;4974855;28;20029;-68
2022/06/22 07:49:28;;;;;;;4.47;1.50;;;;;;;;;;4974566;28;20034;-68
2022/06/22 07:51:57;;;;;;;5.97;1.67;;;;;;;;;;4974549;28;20058;-68
2022/06/22 07:54:32;;;;;;;6.57;1.45;;;;;;;;;;4974245;28;20023;-68
2022/06/22 07:57:04;;;;;;;4.40;1.33;;;;;;;;;;4974287;28;20113;-68
2022/06/22 07:59:35;;;;;;;4.30;1.83;;;;;;;;;;4974493;28;20098;-68
2022/06/22 08:02:09;;;;;;;4.75;1.35;;;;;;;;;;4974613;28;20030;-68
2022/06/22 08:04:44;;;;;;;5.70;1.52;;;;;;;;;;4974209;28;20056;-68
2022/06/22 08:07:24;;;;;;;5.70;1.42;;;;;;;;;;4974264;28;20019;-68
2022/06/22 08:10:15;;;;;;;3.75;1.60;;;;;;;;;;4974475;28;20037;-68
2022/06/22 08:12:55;;;;;;;6.28;1.70;;;;;;;;;;4974509;28;20023;-68
2022/06/22 08:15:22;;;;;;;7.10;1.70;;;;;;;;;;4972968;28;20054;-67
2022/06/22 08:17:52;;;;;;;7.68;1.70;;;;;;;;;;4964085;28;20035;-68
2022/06/22 08:20:25;;;;;;;5.78;1.30;;;;;;;;;;4954703;28;20043;-68
2022/06/22 08:22:53;;;;;;;4.97;1.60;;;;;;;;;;4954674;28;20130;-68
2022/06/22 08:25:22;;;;;;;5.00;1.05;;;;;;;;;;4954557;28;20085;-68
2022/06/22 08:27:48;;;;;;;2.47;1.20;;;;;;;;;;4954790;28;20027;-68
2022/06/22 08:30:15;;;;;;;3.90;1.17;;;;;;;;;;4969897;28;20451;-66
2022/06/22 08:32:51;;;;;;;2.88;1.30;;;;;;;;;;4973867;28;20440;-67
2022/06/22 08:35:26;;;;;;;3.50;1.40;;;;;;;;;;4972919;28;20034;-67
2022/06/22 08:38:05;;;;;;;4.32;1.40;;;;;;;;;;4966037;28;20035;-67
2022/06/22 08:40:40;;;;;;;4.43;1.55;;;;;;;;;;4957039;28;20085;-67
2022/06/22 08:43:35;;;;;;;5.93;1.48;;;;;;;;;;4973711;28;20490;-67
2022/06/22 08:46:04;;;;;;;9.90;2.00;;;;;;;;;;4973728;28;20031;-67
2022/06/22 08:48:54;;;;;;;3.72;1.35;;;;;;;;;;4973517;28;20543;-67
2022/06/22 08:51:38;;;;;;;7.30;1.20;;;;;;;;;;4973878;28;20130;-67
2022/06/22 08:54:34;;;;;;;5.78;1.30;;;;;;;;;;4973722;28;20034;-67
2022/06/22 08:57:18;;;;;;;9.90;1.73;;;;;;;;;;4973516;28;20034;-67
2022/06/22 09:00:03;;;;;;;3.53;1.50;;;;;;;;;;4973502;28;20388;-67
2022/06/22 09:03:06;;;;;;;3.03;1.30;;;;;;;;;;4973422;28;20503;-67
2022/06/22 09:05:46;;;;;;;2.30;1.40;;;;;;;;;;4973113;28;20035;-67
2022/06/22 09:08:41;;;;;;;3.88;1.45;;;;;;;;;;4973270;28;20477;-66
2022/06/22 09:11:10;;;;;;;3.17;1.10;;;;;;;;;;4973376;28;20460;-65
2022/06/22 09:13:41;;;;;;;4.25;1.10;;;;;;;;;;4973650;28;20151;-67
2022/06/22 09:16:24;;;;;;;2.83;1.15;;;;;;;;;;4973210;28;20122;-67
2022/06/22 09:19:28;;;;;;;4.32;1.27;;;;;;;;;;4955041;28;20043;-67
2022/06/22 09:22:02;;;;;;;2.70;1.10;;;;;;;;;;4933023;29;20043;-67
2022/06/22 09:24:39;;;;;;;2.25;0.93;;;;;;;;;;4932777;29;20044;-65
2022/06/22 09:27:13;;;;;;;3.47;1.20;;;;;;;;;;4932474;29;20053;-67
2022/06/22 09:30:00;;;;;;;3.85;1.27;;;;;;;;;;4932831;29;20035;-67
2022/06/22 09:32:50;;;;;;;1.92;1.13;;;;;;;;;;4932646;29;20040;-67
2022/06/22 09:35:45;;;;;;;4.65;1.10;;;;;;;;;;4932789;29;20035;-68
2022/06/22 09:38:46;;;;;;;6.22;1.50;;;;;;;;;;4942838;29;20118;-67
2022/06/22 09:41:20;;;;;;;2.65;1.33;;;;;;;;;;4951541;29;20085;-66
2022/06/22 09:44:01;;;;;;;4.05;1.30;;;;;;;;;;4951931;29;20039;-67
2022/06/22 09:46:53;;;;;;;4.28;1.20;;;;;;;;;;4951663;29;20039;-67
2022/06/22 09:49:24;;;;;;;6.97;1.33;;;;;;;;;;4875533;29;20411;-66
2022/06/22 09:52:12;;;;;;;6.80;1.60;;;;;;;;;;4882083;29;20437;-66
2022/06/22 09:58:12;;;;;;;140.80;19.20;;;;;;;;;;4913632;29;20047;-67
2022/06/22 10:01:08;;;;;;;130.05;22.08;;;;;;;;;;4913224;29;20518;-68
2022/06/22 10:04:23;;;;;;;13.05;3.05;;;;;;;;;;4913764;29;20064;-65
2022/06/22 10:07:13;;;;;;;5.25;1.67;;;;;;;;;;4894361;29;20450;-67
2022/06/22 10:09:48;;;;;;;69.93;15.50;;;;;;;;;;4894485;29;20048;-66
2022/06/22 10:12:25;;;;;;;73.38;16.02;;;;;;;;;;4894698;29;20048;-67
2022/06/22 10:15:21;;;;;;;10.23;2.33;;;;;;;;;;4894325;29;20065;-65
2022/06/22 10:18:14;;;;;;;5.70;1.83;;;;;;;;;;4889120;29;20052;-67
2022/06/22 10:20:52;;;;;;;34.83;9.63;;;;;;;;;;4916907;29;20067;-66
2022/06/22 10:23:39;;;;;;;5.97;1.70;;;;;;;;;;4916976;29;20474;-67
2022/06/22 10:26:19;;;;;;;12.10;2.20;;;;;;;;;;4903257;29;20414;-66
2022/06/22 10:28:58;;;;;;;17.98;3.63;;;;;;;;;;4916721;29;20072;-65
2022/06/22 10:31:53;;;;;;;4.55;1.23;;;;;;;;;;4916306;29;20036;-67
2022/06/22 10:34:46;;;;;;;12.32;3.70;;;;;;;;;;4916589;29;20050;-66
2022/06/22 10:37:37;;;;;;;3.42;1.10;;;;;;;;;;4913396;29;20097;-66
2022/06/22 10:45:08;;;;;;;8.32;2.03;;;;;;;;;;4860048;29;20045;-66
2022/06/22 10:46:29;;;;;;;9.30;2.53;;;;;;;;;;4897488;29;20073;-66
2022/06/22 10:49:00;;;;;;;6.70;2.35;;;;;;;;;;4896988;29;20043;-67
2022/06/22 10:52:21;;;;;;;4.57;1.58;;;;;;;;;;4897397;29;20036;-66
2022/06/22 10:54:53;;;;;;;6.80;1.65;;;;;;;;;;4893886;29;20120;-66
2022/06/22 10:57:57;;;;;;;4.30;1.35;;;;;;;;;;4897283;29;20153;-67
2022/06/22 11:01:01;;;;;;;3.75;1.30;;;;;;;;;;4896940;29;20048;-67
2022/06/22 11:04:12;;;;;;;3.65;1.50;;;;;;;;;;4897183;29;20169;-67
2022/06/22 11:06:54;;;;;;;3.80;1.35;;;;;;;;;;4897252;29;20036;-66
2022/06/22 11:09:30;;;;;;;6.93;1.27;;;;;;;;;;4896981;29;20048;-67
2022/06/22 11:12:02;;;;;;;3.22;1.45;;;;;;;;;;4896891;29;20515;-67
2022/06/22 11:14:27;;;;;;;4.18;1.50;;;;;;;;;;4896913;29;20037;-68
2022/06/22 11:17:11;;;;;;;3.78;1.40;;;;;;;;;;4936018;28;20054;-67
2022/06/22 11:20:01;;;;;;;3.50;1.40;;;;;;;;;;4975195;28;20035;-68
2022/06/22 11:22:41;;;;;;;3.08;1.25;;;;;;;;;;4975136;28;20035;-67
2022/06/22 11:31:38;;;;;;;2.88;1.05;;;;;;;;;;4974968;28;20041;-67
2022/06/22 11:34:21;;;;;;;5.00;1.48;;;;;;;;;;4973569;28;20031;-68
2022/06/22 11:37:12;;;;;;;1.75;1.08;;;;;;;;;;4974972;28;20035;-67
2022/06/22 11:39:53;;;;;;;4.50;1.50;;;;;;;;;;4955568;29;20038;-68
2022/06/22 11:42:33;;;;;;;5.20;1.50;;;;;;;;;;4955540;28;20027;-68
2022/06/22 11:48:36;;;;;;;3.67;1.20;;;;;;;;;;4955725;29;20436;-68
2022/06/22 11:51:38;;;;;;;3.42;1.40;;;;;;;;;;4955359;28;20110;-67
2022/06/22 11:54:43;;;;;;;3.80;1.35;;;;;;;;;;4955108;28;20114;-68
2022/06/22 11:57:26;;;;;;;4.75;2.10;;;;;;;;;;4955116;28;20047;-68
2022/06/22 12:00:18;;;;;;;5.78;1.40;;;;;;;;;;4955267;28;20102;-68
2022/06/22 12:02:55;;;;;;;2.92;1.17;;;;;;;;;;4953159;29;20074;-68
2022/06/22 12:05:52;;;;;;;7.03;2.15;;;;;;;;;;4955107;28;20058;-68
2022/06/22 12:08:23;;;;;;;4.72;1.40;;;;;;;;;;4955099;28;20038;-67
2022/06/22 12:10:59;;;;;;;2.83;1.23;;;;;;;;;;4954519;28;20055;-67
2022/06/22 12:16:45;;;;;;;6.50;1.20;;;;;;;;;;4957890;28;20113;-67
2022/06/22 12:19:23;;;;;;;4.82;1.50;;;;;;;;;;4993444;28;20042;-67
2022/06/22 12:22:27;;;;;;;5.13;1.00;;;;;;;;;;4993330;28;20030;-67
2022/06/22 12:25:17;;;;;;;8.65;1.20;;;;;;;;;;4993556;28;20089;-67
2022/06/22 12:27:59;;;;;;;2.03;1.00;;;;;;;;;;4993555;28;20026;-66
2022/06/22 12:30:50;;;;;;;3.55;1.10;;;;;;;;;;4993312;28;20039;-67
2022/06/22 12:33:22;;;;;;;4.90;1.40;;;;;;;;;;4993255;28;20476;-68
2022/06/22 12:36:03;;;;;;;5.50;1.40;;;;;;;;;;4991782;28;20041;-65
2022/06/22 12:38:36;;;;;;;3.55;1.20;;;;;;;;;;4972824;28;20023;-67
2022/06/22 12:41:35;;;;;;;4.00;1.13;;;;;;;;;;4973442;28;20113;-66
2022/06/22 12:44:22;;;;;;;5.50;2.15;;;;;;;;;;4973746;28;20026;-67
2022/06/22 12:46:48;;;;;;;4.22;1.17;;;;;;;;;;4973643;28;20042;-67
2022/06/22 12:49:38;;;;;;;3.90;1.20;;;;;;;;;;4973398;28;20396;-68
2022/06/22 12:52:21;;;;;;;;;;;;;;;;;;4953897;29;20053;-67
2022/06/22 12:55:28;;;;;;;4.10;1.17;;;;;;;;;;4959314;28;19921;-68
2022/06/22 12:58:05;;;;;;;3.78;1.10;;;;;;;;;;4972244;28;20038;-68
2022/06/22 13:00:33;;;;;;;6.13;1.30;;;;;;;;;;4973569;28;20027;-67
2022/06/22 13:03:02;;;;;;;3.97;1.10;;;;;;;;;;4973460;28;20033;-67
2022/06/22 13:05:33;;;;;;;4.22;1.23;;;;;;;;;;4973606;28;20035;-68
2022/06/22 13:08:07;;;;;;;4.88;1.27;;;;;;;;;;4973557;28;20483;-68
2022/06/22 13:10:38;;;;;;;3.55;1.00;;;;;;;;;;4973320;28;20027;-67
2022/06/22 13:13:26;;;;;;;4.82;1.30;;;;;;;;;;4973465;28;20050;-68
2022/06/22 13:16:09;;;;;;;2.83;1.10;;;;;;;;;;4972966;28;20070;-68
2022/06/22 13:18:42;;;;;;;3.00;1.10;;;;;;;;;;4989071;28;20106;-67
2022/06/22 13:21:21;;;;;;;2.70;1.17;;;;;;;;;;4992689;28;20538;-68
2022/06/22 13:23:59;;;;;;;2.65;0.90;;;;;;;;;;4992486;28;20030;-68
2022/06/22 13:27:02;;;;;;;2.13;1.10;;;;;;;;;;4992751;28;20038;-68
2022/06/22 13:29:47;;;;;;;3.17;1.20;;;;;;;;;;4992491;28;20026;-68
2022/06/22 13:32:13;;;;;;;4.00;1.17;;;;;;;;;;4992682;28;20117;-66
2022/06/22 13:34:45;;;;;;;2.55;0.95;;;;;;;;;;4992610;28;20038;-67
2022/06/22 13:37:32;;;;;;;6.07;1.30;;;;;;;;;;4992227;28;20031;-65
2022/06/22 13:40:03;;;;;;;2.22;0.90;;;;;;;;;;4992389;28;20427;-68
2022/06/22 13:42:57;;;;;;;2.60;1.10;;;;;;;;;;4991071;28;20379;-68
2022/06/22 13:45:37;;;;;;;4.88;1.08;;;;;;;;;;4991320;28;20026;-64
2022/06/22 13:48:13;;;;;;;2.78;1.02;;;;;;;;;;4992502;28;20503;-66
2022/06/22 13:51:22;;;;;;;3.05;0.90;;;;;;;;;;4992187;28;20030;-66
2022/06/22 13:54:27;;;;;;;2.03;0.90;;;;;;;;;;4995097;28;20038;-69
2022/06/22 13:56:59;;;;;;;4.07;1.23;;;;;;;;;;4996125;28;20122;-66
2022/06/22 13:59:44;;;;;;;2.67;0.95;;;;;;;;;;4996080;28;20030;-66
2022/06/22 14:02:42;;;;;;;1.63;0.82;;;;;;;;;;4994789;28;20415;-66
2022/06/22 14:05:17;;;;;;;3.67;1.30;;;;;;;;;;4996055;28;20037;-69
2022/06/22 14:07:53;;;;;;;5.30;1.27;;;;;;;;;;4995777;28;20034;-69
2022/06/22 14:10:38;;;;;;;2.85;1.13;;;;;;;;;;4995948;28;20034;-67
2022/06/22 14:13:19;;;;;;;2.33;1.08;;;;;;;;;;4995968;28;20033;-67
2022/06/22 14:16:03;;;;;;;3.97;1.17;;;;;;;;;;4995687;28;20500;-67
2022/06/22 14:18:40;;;;;;;2.33;0.95;;;;;;;;;;4995436;28;20049;-67
2022/06/22 14:21:11;;;;;;;1.98;1.00;;;;;;;;;;4995704;28;20487;-67
2022/06/22 14:23:39;;;;;;;5.03;1.10;;;;;;;;;;4995674;28;20026;-68
2022/06/22 14:26:23;;;;;;;2.50;1.00;;;;;;;;;;4995526;28;20492;-67
2022/06/22 14:29:16;;;;;;;8.15;1.10;;;;;;;;;;4995647;28;20045;-66
2022/06/22 14:32:14;;;;;;;3.83;1.20;;;;;;;;;;4995557;28;20035;-67
2022/06/22 14:35:04;;;;;;;2.35;0.90;;;;;;;;;;4995618;28;20022;-67
2022/06/22 14:37:33;;;;;;;;;;;;;;;;;;4995591;28;20026;-66
2022/06/22 14:40:05;;;;;;;2.53;0.93;;;;;;;;;;4995442;28;20375;-67
2022/06/22 14:42:36;;;;;;;3.72;0.90;;;;;;;;;;4995448;28;20023;-67
2022/06/22 14:45:24;;;;;;;4.15;1.00;;;;;;;;;;4995375;28;20023;-67
2022/06/22 14:48:08;;;;;;;3.40;1.13;;;;;;;;;;4995275;28;20399;-66
2022/06/22 14:50:37;;;;;;;2.85;0.90;;;;;;;;;;4994950;28;20240;-67
2022/06/22 14:53:05;;;;;;;4.13;1.05;;;;;;;;;;4995374;28;20094;-67
2022/06/22 14:55:43;;;;;;;2.58;1.10;;;;;;;;;;4995126;28;20026;-67
2022/06/22 14:58:28;;;;;;;2.70;1.08;;;;;;;;;;4994700;28;20120;-66
2022/06/22 15:01:15;;;;;;;2.80;0.93;;;;;;;;;;4993629;28;20062;-67
2022/06/22 15:03:54;;;;;;;1.98;0.90;;;;;;;;;;4994230;28;20027;-67
2022/06/22 15:06:45;;;;;;;3.85;1.27;;;;;;;;;;4994760;28;20026;-67
2022/06/22 15:09:41;;;;;;;4.10;1.40;;;;;;;;;;4994706;28;20030;-67
2022/06/22 15:12:57;;;;;;;4.60;1.45;;;;;;;;;;4994636;28;20030;-67
2022/06/22 15:15:44;;;;;;;7.97;2.67;;;;;;;;;;4994598;28;20034;-67
2022/06/22 15:18:32;;;;;;;8.55;2.38;;;;;;;;;;4994333;28;20038;-65
2022/06/22 15:21:15;;;;;;;9.85;2.30;;;;;;;;;;4994262;28;20037;-67
2022/06/22 15:23:41;;;;;;;8.52;2.28;;;;;;;;;;4994763;28;20022;-66
2022/06/22 15:26:25;;;;;;;7.72;2.40;;;;;;;;;;4994336;28;20081;-66
2022/06/22 15:29:11;;;;;;;8.27;2.85;;;;;;;;;;4994465;28;20502;-67
2022/06/22 15:32:01;;;;;;;5.68;2.38;;;;;;;;;;4994614;28;20042;-66
2022/06/22 15:34:31;;;;;;;8.93;3.05;;;;;;;;;;4993029;28;20372;-65
2022/06/22 15:36:59;;;;;;;10.48;2.60;;;;;;;;;;4994118;28;20121;-65
2022/06/22 15:39:27;;;;;;;6.80;2.60;;;;;;;;;;4994300;28;20062;-67
2022/06/22 15:42:20;;;;;;;7.80;2.70;;;;;;;;;;4973843;28;20025;-65
2022/06/22 15:44:56;;;;;;;9.90;2.70;;;;;;;;;;4974734;28;20091;-67
2022/06/22 15:47:32;;;;;;;9.68;2.40;;;;;;;;;;4974673;28;20026;-67
2022/06/22 15:50:45;;;;;;;6.93;2.50;;;;;;;;;;4974394;28;20023;-66
2022/06/22 15:53:18;;;;;;;5.35;2.30;;;;;;;;;;4965692;28;20078;-66
2022/06/22 15:55:58;;;;;;;6.63;2.40;;;;;;;;;;4974720;28;20073;-67
2022/06/22 15:58:31;;;;;;;5.50;2.40;;;;;;;;;;4974590;28;20074;-65
2022/06/22 16:00:57;;;;;;;5.15;2.38;;;;;;;;;;4974602;28;20403;-67
2022/06/22 16:03:26;;;;;;;7.28;2.50;;;;;;;;;;4974252;28;20113;-67
2022/06/22 16:05:55;;;;;;;6.80;2.28;;;;;;;;;;4974316;28;20026;-68
2022/06/22 16:08:59;;;;;;;5.80;2.30;;;;;;;;;;4974241;28;20086;-68
2022/06/22 16:14:40;;;;;;;6.03;2.60;;;;;;;;;;4974318;28;20046;-68
2022/06/22 16:17:14;;;;;;;7.40;2.67;;;;;;;;;;4977670;28;20416;-68
2022/06/22 16:19:46;;;;;;;8.05;2.50;;;;;;;;;;4993458;28;20086;-68